EFTUEFPO

Guest
Details From EFTU - Turku
To EFPO - Pori
Flight Number -
Tags decoded
Created
Modified
Stats Distance 75 nm / 139 km
Max Altitude 0 ft / 0 m
Waypoints 3
Social Downloads 0
Likes 0
Share VATSIM

Download

Looking for another format? Having issues loading an existing format? Contact us
Advertisement - Login to hide

Notes

Requested: EFTU INKIS EFPO

Route

EFTU INKIS EFPO

ID Type Via Altitude Latitude Longitude Leg Dist Tot Dist Heading (true) Name
O EFTU APT - 0 ft / 0 m 60.51412˚ 22.26281˚ - 0 nm - Turku
INKIS FIX - 0 ft / 0 m 60.93750˚ 22.86861˚ 31 nm 31 nm 35° / 35° -
O EFPO APT - 0 ft / 0 m 61.46117˚ 21.79925˚ 44 nm 75 nm 316° / 315° Pori

Altitude Profile

Advertisement - Login to hide

EFTU

Details ICAO EFTU (TKU)
Name Turku
Region Finland
Timezone Europe/Helsinki (UTC+3.0)
Stats Elevation 161 ft / 49 m (AMSL)
Location 60.514115° 22.262812°
Runways 1
Magnetic Variation 8.058° E

METAR

EFTU 240320Z AUTO 26002KT 9999 FEW060/// 07/06 Q1012

Decode

TAF

TAF EFTU 240234Z 2403/2503 33003KT CAVOK

Decode

Departure Runways

ID Width Length Bearing (true) Bearing (mag) Surface Threshold Offset Overrun Length
08 197 ft / 60 m 8,175 ft / 2,492 m 84.82° 76.76° Asphalt 0 ft / 0 m 0 ft / 0 m
26 197 ft / 60 m 8,175 ft / 2,492 m 264.86° 256.80° Asphalt 0 ft / 0 m 0 ft / 0 m

EFPO

Details ICAO EFPO (POR)
Name Pori
Region Finland
Timezone Europe/Helsinki (UTC+3.0)
Stats Elevation 44 ft / 13 m (AMSL)
Location 61.461174° 21.799255°
Runways 2
Magnetic Variation 8.122° E

METAR

EFPO 240320Z AUTO VRB01KT CAVOK 10/07 Q1012

Decode

TAF

Not found

Destination Runways

ID Width Length Bearing (true) Bearing (mag) Surface Threshold Offset Overrun Length
12 197 ft / 60 m 7,692 ft / 2,345 m 125.81° 117.69° Asphalt 312 ft / 95 m 0 ft / 0 m
17 98 ft / 30 m 2,623 ft / 799 m 173.89° 165.77° Asphalt 400 ft / 122 m 0 ft / 0 m
30 197 ft / 60 m 7,692 ft / 2,345 m 305.84° 297.72° Asphalt 1,132 ft / 345 m 0 ft / 0 m
35 98 ft / 30 m 2,623 ft / 799 m 353.90° 345.78° Asphalt 400 ft / 122 m 0 ft / 0 m

Approach Navaids

Runway Type Ident Frequency Range Bearing (true) Bearing (mag) Slope Elevation
30 Localiser PO 109.10 MHz 18 nm / 33 km 305.81° 297.69° - 44 ft / 13 m (AMSL)
30 Glidescope PO 109.10 MHz 10 nm / 19 km 305.83° 297.71° 3.00° 44 ft / 13 m (AMSL)

Popular Alternatives